Church View, Virginia
Current Conditions -  °F | °C
As of 4:55 AM on Sunday 25 Jan 2015 (Local Time) from KFYJ Reporting Station
Clear Clear  
Wind Chill: 34°   Ceiling: Unl
Heat Index: 34°   Visibility: 10mi
Dew Point: 28°   Wind: 3mph
Humidity: 78%   Direction: 270°W
Pressure: 29.85"   Gusts: NA
Location:  37.68°N, 76.68°W
Report Text: KFYJ 250955Z AUTO 27003KT 10SM CLR 01/M02 A2985 RMK AO2 T00101025
Loading
Personal Weather Stations






























Interactive Weather Map New forecast layout! Learn more

10-Day Weather Forecast

Advertisements
Track Severe Weather on mobile